Time;durP1;ratioP1;P1;durP2;ratioP2;P2;SDS_P1;SDS_P2;PMS_P1;PMS_P2;Temp;Humidity;BMP_temperature;BMP_pressure;BME280_temperature;BME280_humidity;BME280_pressure;Samples;Min_cycle;Max_cycle;Signal;HPM_P1;HPM_P2
2021/11/07 00:01:54;;;;;;;8.82;4.30;;;;;;;7.94;100.00;101635.88;2091689;28;20029;-70
2021/11/07 00:02:39;;;;;;;6.55;4.22;;;;;;;7.93;100.00;101649.75;2091000;28;20083;-70
2021/11/07 00:04:44;;;;;;;10.73;5.47;;;;;;;7.91;100.00;101629.88;2091639;28;20029;-71
2021/11/07 00:05:55;;;;;;;6.35;4.38;;;;;;;7.91;100.00;101625.56;2091625;28;20021;-70
2021/11/07 00:09:17;;;;;;;8.32;4.75;;;;;;;7.90;100.00;101618.63;2091733;28;20040;-70
2021/11/07 00:10:22;;;;;;;7.97;4.97;;;;;;;7.88;100.00;101620.41;2090920;28;20490;-71
2021/11/07 00:12:32;;;;;;;7.60;4.93;;;;;;;7.88;100.00;101624.75;2091713;28;20385;-69
2021/11/07 00:13:33;;;;;;;7.80;4.57;;;;;;;7.86;100.00;101620.44;2091525;28;20108;-68
2021/11/07 00:14:33;;;;;;;6.07;4.25;;;;;;;7.86;100.00;101632.56;2091696;28;20028;-69
2021/11/07 00:15:33;;;;;;;10.33;5.43;;;;;;;7.85;100.00;101630.84;2090885;28;20029;-69
2021/11/07 00:16:36;;;;;;;7.40;5.20;;;;;;;7.85;100.00;101625.66;2090915;28;20029;-69
2021/11/07 00:17:37;;;;;;;7.93;5.10;;;;;;;7.85;100.00;101630.84;2091527;28;20052;-67
2021/11/07 00:18:46;;;;;;;;;;;;;;;7.86;100.00;101632.56;2091983;28;20017;-67
2021/11/07 00:19:51;;;;;;;7.63;4.97;;;;;;;7.86;100.00;101624.75;2091564;28;19954;-70
2021/11/07 00:24:23;;;;;;;6.60;4.95;;;;;;;7.83;100.00;101612.69;2091627;28;20091;-68
2021/11/07 00:27:35;;;;;;;9.23;5.43;;;;;;;7.84;100.00;101613.56;2090435;28;20033;-68
2021/11/07 00:28:23;;;;;;;6.28;5.07;;;;;;;7.84;100.00;101618.75;2088158;28;20036;-69
2021/11/07 00:29:31;;;;;;;6.93;4.78;;;;;;;7.82;100.00;101610.13;2091429;28;20037;-68
2021/11/07 00:30:40;;;;;;;6.47;4.45;;;;;;;7.82;100.00;101620.50;2090788;28;20025;-69
2021/11/07 00:31:56;;;;;;;13.10;5.35;;;;;;;7.81;100.00;101630.06;2090921;28;20082;-69
2021/11/07 00:33:13;;;;;;;9.15;5.25;;;;;;;7.82;100.00;101634.38;2091428;28;20017;-70
2021/11/07 00:36:14;;;;;;;6.20;4.88;;;;;;;7.83;100.00;101623.09;2090458;28;20025;-70
2021/11/07 00:38:54;;;;;;;7.05;4.80;;;;;;;7.83;100.00;101620.47;2082381;28;20033;-68
2021/11/07 00:41:09;;;;;;;8.00;4.77;;;;;;;7.86;100.00;101622.16;2091478;28;20382;-68
2021/11/07 00:42:29;;;;;;;7.53;4.88;;;;;;;7.86;100.00;101627.38;2091372;28;20025;-68
2021/11/07 00:43:36;;;;;;;8.15;5.03;;;;;;;7.87;100.00;101621.28;2091327;28;20024;-69
2021/11/07 00:44:59;;;;;;;6.60;5.47;;;;;;;7.86;100.00;101610.03;2090687;28;20032;-70
2021/11/07 00:48:30;;;;;;;7.63;5.55;;;;;;;7.86;100.00;101612.63;2091339;28;20103;-67
2021/11/07 00:49:35;;;;;;;8.15;5.82;;;;;;;7.88;100.00;101611.75;2091309;28;20433;-68
2021/11/07 00:50:46;;;;;;;8.10;5.80;;;;;;;7.89;100.00;101618.66;2091287;28;20086;-69
2021/11/07 00:52:57;;;;;;;6.70;5.93;;;;;;;7.89;100.00;101621.25;2091368;28;20064;-69
2021/11/07 00:55:32;;;;;;;9.20;5.43;;;;;;;7.89;100.00;101622.13;2090816;28;20366;-70
2021/11/07 00:56:51;;;;;;;7.40;5.43;;;;;;;7.90;100.00;101628.19;2091206;28;20028;-69
2021/11/07 00:58:07;;;;;;;11.80;5.50;;;;;;;7.90;100.00;101618.63;2091238;28;20070;-70
2021/11/07 01:00:26;;;;;;;7.95;5.95;;;;;;;7.91;100.00;101620.34;2091213;28;20060;-68
2021/11/07 01:01:29;;;;;;;7.85;5.60;;;;;;;7.92;100.00;101616.88;2091155;28;20113;-71
2021/11/07 01:02:37;;;;;;;8.02;4.95;;;;;;;7.92;100.00;101622.06;2089998;28;20029;-69
2021/11/07 01:03:37;;;;;;;6.95;5.57;;;;;;;7.93;100.00;101622.91;2090648;28;20090;-66
2021/11/07 01:04:38;;;;;;;8.77;5.82;;;;;;;7.94;100.00;101616.84;2091091;28;20163;-70
2021/11/07 01:05:39;;;;;;;8.57;5.70;;;;;;;7.94;100.00;101609.88;2091164;28;20024;-67
2021/11/07 01:06:41;;;;;;;8.30;5.87;;;;;;;7.95;100.00;101611.63;2090484;28;20055;-68
2021/11/07 01:07:41;;;;;;;5.85;4.95;;;;;;;7.96;100.00;101602.91;2090536;28;20032;-67
2021/11/07 01:08:42;;;;;;;7.47;5.37;;;;;;;7.98;100.00;101615.91;2091087;28;20021;-69
2021/11/07 01:09:42;;;;;;;7.37;5.53;;;;;;;7.98;100.00;101619.34;2090421;28;20029;-68
2021/11/07 01:10:43;;;;;;;7.53;5.63;;;;;;;7.98;100.00;101608.09;2090590;28;20013;-69
2021/11/07 01:11:43;;;;;;;6.87;5.23;;;;;;;7.97;100.00;101612.44;2091139;28;20017;-68
2021/11/07 01:12:44;;;;;;;9.17;6.00;;;;;;;7.97;100.00;101615.03;2091137;28;20043;-69
2021/11/07 01:13:44;;;;;;;6.00;5.23;;;;;;;7.98;100.00;101605.50;2090374;28;20560;-69
2021/11/07 01:14:44;;;;;;;9.20;6.00;;;;;;;7.98;100.00;101610.69;2090550;28;20025;-71
2021/11/07 01:15:45;;;;;;;7.37;5.13;;;;;;;7.99;100.00;101602.00;2091127;28;20017;-68
2021/11/07 01:16:45;;;;;;;7.07;5.65;;;;;;;7.99;100.00;101612.41;2091034;28;20056;-70
2021/11/07 01:17:46;;;;;;;7.70;5.37;;;;;;;8.00;100.00;101611.50;2091092;28;20021;-70
2021/11/07 01:18:46;;;;;;;7.13;5.23;;;;;;;8.01;100.00;101614.97;2091058;28;20360;-67
2021/11/07 01:19:48;;;;;;;6.63;5.68;;;;;;;8.02;100.00;101607.16;2091061;28;20024;-67
2021/11/07 01:20:48;;;;;;;;;;;;;;;8.04;100.00;101612.31;2091506;28;20017;-69
2021/11/07 01:21:49;;;;;;;7.53;5.45;;;;;;;8.04;100.00;101604.53;2090329;28;20393;-68
2021/11/07 01:24:09;;;;;;;6.85;5.85;;;;;;;8.05;100.00;101595.84;2090985;28;20353;-68
2021/11/07 01:25:10;;;;;;;9.27;5.90;;;;;;;8.05;100.00;101594.09;2090988;28;20036;-68
2021/11/07 01:27:33;;;;;;;8.23;5.60;;;;;;;8.05;100.00;101575.91;2090640;28;20063;-69
2021/11/07 01:28:49;;;;;;;8.13;6.30;;;;;;;8.05;100.00;101586.31;2090918;28;20434;-69
2021/11/07 01:29:54;;;;;;;8.80;6.47;;;;;;;8.06;100.00;101576.75;2090979;28;20032;-69
2021/11/07 01:30:55;;;;;;;8.27;6.72;;;;;;;8.06;100.00;101577.59;2090938;28;20390;-68
2021/11/07 01:31:57;;;;;;;8.07;6.20;;;;;;;8.09;100.00;101576.69;2090903;28;20036;-69
2021/11/07 01:33:12;;;;;;;6.80;6.10;;;;;;;8.09;100.00;101568.88;2090392;28;20039;-64
2021/11/07 01:34:36;;;;;;;9.35;5.60;;;;;;;8.09;100.00;101571.47;2090439;28;20017;-65
2021/11/07 01:37:00;;;;;;;7.47;5.15;;;;;;;8.12;100.00;101579.22;2091039;28;20025;-65
2021/11/07 01:40:18;;;;;;;8.68;5.75;;;;;;;8.14;100.00;101590.44;2090994;28;20475;-66
2021/11/07 01:41:24;;;;;;;8.45;5.63;;;;;;;8.15;100.00;101579.16;2090767;28;20128;-66
2021/11/07 01:42:33;;;;;;;7.20;5.80;;;;;;;8.16;100.00;101570.47;2090951;28;20398;-64
2021/11/07 01:43:34;;;;;;;7.70;6.13;;;;;;;8.17;100.00;101569.56;2090824;28;20113;-64
2021/11/07 01:44:48;;;;;;;8.13;6.57;;;;;;;8.17;100.00;101561.78;2090916;28;20466;-65
2021/11/07 01:45:55;;;;;;;8.48;6.15;;;;;;;8.17;100.00;101553.97;2090867;28;20016;-65
2021/11/07 01:46:57;;;;;;;8.02;6.93;;;;;;;8.18;100.00;101554.84;2090849;28;20021;-64
2021/11/07 01:48:15;;;;;;;8.45;6.97;;;;;;;8.18;100.00;101566.09;2090832;28;20029;-65
2021/11/07 01:49:20;;;;;;;7.90;6.50;;;;;;;8.18;100.00;101550.47;2090867;28;20444;-64
2021/11/07 01:50:21;;;;;;;12.05;7.50;;;;;;;8.19;100.00;101554.81;2090914;28;20051;-65
2021/11/07 01:51:23;;;;;;;9.38;6.40;;;;;;;8.18;100.00;101550.47;2090787;28;20025;-65
2021/11/07 01:52:27;;;;;;;7.05;5.53;;;;;;;8.20;100.00;101547.84;2090833;28;20021;-64
2021/11/07 01:53:32;;;;;;;7.78;7.05;;;;;;;8.21;100.00;101549.59;2090708;28;20033;-65
2021/11/07 01:54:48;;;;;;;9.38;6.78;;;;;;;8.20;100.00;101548.72;2090809;28;20024;-66
2021/11/07 01:55:52;;;;;;;10.32;7.13;;;;;;;8.21;100.00;101547.81;2090781;28;20027;-65
2021/11/07 01:56:52;;;;;;;9.38;6.97;;;;;;;8.23;100.00;101553.00;2090072;28;20024;-64
2021/11/07 01:57:52;;;;;;;8.53;6.77;;;;;;;8.23;100.00;101546.06;2090186;28;20414;-65
2021/11/07 01:58:53;;;;;;;10.20;7.10;;;;;;;8.23;100.00;101545.19;2090790;28;20075;-66
2021/11/07 01:59:56;;;;;;;9.67;7.43;;;;;;;8.24;100.00;101547.75;2090770;28;20029;-66
2021/11/07 02:00:58;;;;;;;10.25;7.38;;;;;;;8.23;100.00;101538.25;2090718;28;20420;-65
2021/11/07 02:01:59;;;;;;;10.30;7.53;;;;;;;8.24;100.00;101542.56;2090784;28;20494;-65
2021/11/07 02:03:00;;;;;;;9.65;7.45;;;;;;;8.25;100.00;101543.44;2090850;28;20053;-67
2021/11/07 02:04:00;;;;;;;10.93;7.40;;;;;;;8.26;100.00;101534.72;2089981;28;20375;-65
2021/11/07 02:05:03;;;;;;;11.93;7.70;;;;;;;8.26;100.00;101529.53;2090161;28;20025;-66
2021/11/07 02:06:04;;;;;;;10.85;7.93;;;;;;;8.28;100.00;101535.53;2090727;28;20139;-68
2021/11/07 02:07:05;;;;;;;9.82;7.15;;;;;;;8.29;100.00;101533.81;2089989;28;20424;-65
2021/11/07 02:08:07;;;;;;;10.23;6.80;;;;;;;8.30;100.00;101528.56;2090101;28;20068;-66
2021/11/07 02:09:07;;;;;;;10.30;8.40;;;;;;;8.30;100.00;101528.56;2090631;28;20092;-66
2021/11/07 02:10:10;;;;;;;10.90;8.50;;;;;;;8.31;100.00;101529.44;2090717;28;20037;-66
2021/11/07 02:11:10;;;;;;;11.55;7.85;;;;;;;8.33;100.00;101533.72;2090672;28;20108;-65
2021/11/07 02:12:11;;;;;;;8.90;6.97;;;;;;;8.34;100.00;101524.16;2090696;28;20032;-65
2021/11/07 02:13:11;;;;;;;9.10;7.60;;;;;;;8.33;100.00;101520.72;2090032;28;20027;-65
2021/11/07 02:14:12;;;;;;;8.13;7.27;;;;;;;8.34;100.00;101526.75;2081194;28;20021;-66
2021/11/07 02:15:15;;;;;;;15.83;7.60;;;;;;;8.32;100.00;101515.53;2089611;28;20033;-66
2021/11/07 02:16:18;;;;;;;8.43;6.93;;;;;;;8.34;100.00;101518.94;2090654;28;20037;-66
2021/11/07 02:17:18;;;;;;;9.13;8.02;;;;;;;8.33;100.00;101514.66;2090542;28;20032;-65
2021/11/07 02:18:19;;;;;;;9.37;7.57;;;;;;;8.34;100.00;101518.94;2090624;28;20048;-65
2021/11/07 02:19:19;;;;;;;11.97;8.23;;;;;;;8.34;100.00;101513.75;2090056;28;20108;-65
2021/11/07 02:20:24;;;;;;;9.63;7.40;;;;;;;8.34;100.00;101513.75;2089927;28;20033;-65
2021/11/07 02:21:25;;;;;;;9.27;7.85;;;;;;;8.35;100.00;101510.28;2090037;28;20445;-64
2021/11/07 02:22:25;;;;;;;11.27;7.27;;;;;;;8.34;100.00;101505.94;2090466;28;20028;-67
2021/11/07 02:23:26;;;;;;;8.83;7.87;;;;;;;8.33;100.00;101506.84;2090574;28;20025;-64
2021/11/07 02:24:28;;;;;;;9.70;7.10;;;;;;;8.33;100.00;101507.72;2090649;28;20648;-65
2021/11/07 02:25:29;;;;;;;16.13;8.93;;;;;;;8.34;100.00;101503.34;2089891;28;20071;-64
2021/11/07 02:26:29;;;;;;;11.45;7.90;;;;;;;8.36;100.00;101509.38;2090013;28;20029;-65
2021/11/07 02:27:30;;;;;;;10.07;7.23;;;;;;;8.37;100.00;101508.47;2090555;28;20025;-65
2021/11/07 02:28:37;;;;;;;10.60;8.43;;;;;;;8.36;100.00;101507.63;2090444;28;20025;-64
2021/11/07 02:29:38;;;;;;;12.80;9.32;;;;;;;8.36;100.00;101507.63;2090572;28;20496;-65
2021/11/07 02:30:39;;;;;;;9.45;8.00;;;;;;;8.37;100.00;101492.88;2089888;28;20017;-67
2021/11/07 02:31:39;;;;;;;11.60;8.10;;;;;;;8.36;100.00;101496.38;2081556;28;20025;-65
2021/11/07 02:32:42;;;;;;;12.20;8.13;;;;;;;8.36;100.00;101496.38;2081726;28;20033;-65
2021/11/07 02:33:42;;;;;;;14.52;9.02;;;;;;;8.36;100.00;101504.19;2089851;28;20020;-65
2021/11/07 02:34:44;;;;;;;9.00;8.05;;;;;;;8.35;100.00;101494.66;2089914;28;20558;-65
2021/11/07 02:35:44;;;;;;;12.50;8.90;;;;;;;8.35;100.00;101495.50;2090573;28;20502;-65
2021/11/07 02:36:45;;;;;;;11.50;8.40;;;;;;;8.35;100.00;101490.31;2090492;28;20032;-65
2021/11/07 02:37:46;;;;;;;15.40;9.90;;;;;;;8.35;100.00;101489.47;2090439;28;20016;-67
2021/11/07 02:38:48;;;;;;;11.98;9.00;;;;;;;8.35;100.00;101490.31;2089834;28;20466;-64
2021/11/07 02:39:48;;;;;;;;;;;;;;;8.35;100.00;101484.28;2090266;28;20021;-65
2021/11/07 02:40:48;;;;;;;13.02;8.52;;;;;;;8.35;100.00;101481.66;2090527;28;19909;-67
2021/11/07 02:41:49;;;;;;;12.27;9.80;;;;;;;8.35;100.00;101473.88;2089758;28;20435;-65
2021/11/07 02:42:50;;;;;;;10.18;8.73;;;;;;;8.36;100.00;101472.97;2089854;28;20478;-68
2021/11/07 02:43:55;;;;;;;14.60;8.73;;;;;;;8.37;100.00;101466.88;2090491;28;20028;-65
2021/11/07 02:44:55;;;;;;;11.07;9.98;;;;;;;8.36;100.00;101465.16;2090358;28;20031;-66
2021/11/07 02:45:55;;;;;;;11.77;9.03;;;;;;;8.37;100.00;101466.88;2090453;28;20028;-65
2021/11/07 02:46:56;;;;;;;13.33;9.47;;;;;;;8.37;100.00;101457.34;2090476;28;20061;-63
2021/11/07 02:47:57;;;;;;;13.90;11.15;;;;;;;8.38;100.00;101450.38;2089678;28;20495;-65
2021/11/07 02:49:00;;;;;;;11.90;9.45;;;;;;;8.37;100.00;101452.13;2089769;28;20054;-65
2021/11/07 02:50:00;;;;;;;13.90;9.18;;;;;;;8.38;100.00;101458.16;2090368;28;20073;-65
2021/11/07 02:51:01;;;;;;;14.60;9.97;;;;;;;8.38;100.00;101447.75;2090472;28;20075;-65
2021/11/07 02:52:05;;;;;;;12.48;10.02;;;;;;;8.38;100.00;101451.22;2090374;28;20063;-65
2021/11/07 02:53:05;;;;;;;14.77;9.50;;;;;;;8.39;100.00;101459.91;2090392;28;20028;-68
2021/11/07 02:54:08;;;;;;;11.80;7.33;;;;;;;8.40;100.00;101456.41;2090252;28;20066;-66
2021/11/07 02:55:09;;;;;;;12.18;9.25;;;;;;;8.42;100.00;101456.38;2089690;28;20075;-68
2021/11/07 02:56:10;;;;;;;11.50;9.20;;;;;;;8.44;100.00;101451.97;2089680;28;20455;-66
2021/11/07 02:57:17;;;;;;;15.10;9.85;;;;;;;8.45;100.00;101454.53;2090396;28;20020;-65
2021/11/07 02:58:17;;;;;;;14.32;10.02;;;;;;;8.46;100.00;101450.19;2090338;28;20025;-64
2021/11/07 02:59:23;;;;;;;15.30;9.87;;;;;;;8.48;100.00;101454.47;2090396;28;20025;-64
2021/11/07 03:00:27;;;;;;;13.35;9.23;;;;;;;8.49;100.00;101466.56;2090366;28;20481;-63
2021/11/07 03:01:28;;;;;;;15.57;10.13;;;;;;;8.48;100.00;101459.66;2090402;28;20029;-64
2021/11/07 03:02:29;;;;;;;11.63;9.13;;;;;;;8.48;100.00;101464.00;2090450;28;20028;-65
2021/11/07 03:03:30;;;;;;;13.02;9.85;;;;;;;8.49;100.00;101465.75;2090342;28;20028;-65
2021/11/07 03:04:30;;;;;;;12.35;9.82;;;;;;;8.52;100.00;101464.81;2090336;28;20025;-67
2021/11/07 03:05:31;;;;;;;12.52;10.15;;;;;;;8.53;100.00;101464.81;2089646;28;20025;-65
2021/11/07 03:06:34;;;;;;;11.65;8.88;;;;;;;8.53;100.00;101459.59;2081419;28;20053;-65
2021/11/07 03:07:35;;;;;;;11.93;7.88;;;;;;;8.57;100.00;101457.78;2081653;28;20510;-68
2021/11/07 03:08:41;;;;;;;13.83;9.63;;;;;;;8.57;100.00;101453.44;2081395;28;20041;-68
2021/11/07 03:09:42;;;;;;;13.38;9.23;;;;;;;8.58;100.00;101449.06;2089783;28;20302;-65
2021/11/07 03:10:42;;;;;;;15.17;9.60;;;;;;;8.59;100.00;101445.59;2090318;28;20060;-65
2021/11/07 03:11:43;;;;;;;12.20;10.37;;;;;;;8.61;100.00;101446.41;2089610;28;20349;-66
2021/11/07 03:12:45;;;;;;;15.50;10.18;;;;;;;8.62;100.00;101451.56;2089681;28;20437;-66
2021/11/07 03:13:48;;;;;;;15.05;10.68;;;;;;;8.62;100.00;101442.88;2090287;28;20370;-66
2021/11/07 03:14:51;;;;;;;13.73;9.07;;;;;;;8.63;100.00;101452.44;2090251;28;20433;-65
2021/11/07 03:15:51;;;;;;;10.77;9.05;;;;;;;8.64;100.00;101438.53;2089558;28;20143;-67
2021/11/07 03:16:53;;;;;;;12.10;9.40;;;;;;;8.65;100.00;101440.22;2089629;28;20130;-65
2021/11/07 03:17:53;;;;;;;11.55;9.82;;;;;;;8.65;100.00;101435.03;2090155;28;20464;-65
2021/11/07 03:18:53;;;;;;;10.73;8.63;;;;;;;8.66;100.00;101434.16;2090222;28;20020;-65
2021/11/07 03:19:54;;;;;;;12.80;9.37;;;;;;;8.67;100.00;101433.25;2090227;28;20017;-66
2021/11/07 03:20:54;;;;;;;10.63;9.30;;;;;;;8.68;100.00;101432.34;2090164;28;20470;-66
2021/11/07 03:22:00;;;;;;;13.47;8.77;;;;;;;8.70;100.00;101427.09;2090266;28;20025;-67
2021/11/07 03:23:01;;;;;;;12.77;9.63;;;;;;;8.71;100.00;101440.09;2090038;28;20076;-67
2021/11/07 03:24:02;;;;;;;13.40;9.30;;;;;;;8.72;100.00;101436.56;2090182;28;20044;-64
2021/11/07 03:25:04;;;;;;;11.80;9.70;;;;;;;8.73;100.00;101442.66;2090218;28;20498;-65
2021/11/07 03:26:10;;;;;;;13.73;9.45;;;;;;;8.73;100.00;101435.69;2089848;28;20016;-66
2021/11/07 03:27:15;;;;;;;10.95;8.10;;;;;;;8.75;100.00;101425.22;2090247;28;20024;-65
2021/11/07 03:28:18;;;;;;;11.25;8.80;;;;;;;8.77;100.00;101431.28;2090062;28;20116;-65
2021/11/07 03:29:20;;;;;;;11.45;9.23;;;;;;;8.78;100.00;101437.31;2089520;28;20519;-65
2021/11/07 03:32:47;;;;;;;15.63;9.02;;;;;;;8.78;100.00;101432.97;2090275;28;20029;-66
2021/11/07 03:34:54;;;;;;;11.20;8.60;;;;;;;8.78;100.00;101434.69;2090239;28;20035;-66
2021/11/07 03:35:55;;;;;;;12.68;9.43;;;;;;;8.76;100.00;101430.41;2090123;28;20021;-66
2021/11/07 03:36:58;;;;;;;12.98;9.45;;;;;;;8.78;100.00;101434.69;2090221;28;20025;-65
2021/11/07 03:37:59;;;;;;;13.20;8.30;;;;;;;8.78;100.00;101429.50;2090158;28;20021;-66
2021/11/07 03:38:59;;;;;;;11.67;10.03;;;;;;;8.79;100.00;101431.22;2089476;28;20029;-65
2021/11/07 03:40:00;;;;;;;11.33;9.13;;;;;;;8.79;100.00;101426.03;2089542;28;20037;-67
2021/11/07 03:41:04;;;;;;;12.55;9.45;;;;;;;8.82;100.00;101431.13;2089434;28;20036;-67
2021/11/07 03:42:11;;;;;;;13.55;10.10;;;;;;;8.84;100.00;101431.97;2089427;28;20036;-65
2021/11/07 03:43:12;;;;;;;14.88;8.95;;;;;;;8.84;100.00;101424.16;2090202;28;20060;-64
2021/11/07 03:44:14;;;;;;;14.00;10.07;;;;;;;8.83;100.00;101417.25;2090053;28;20506;-69
2021/11/07 03:45:15;;;;;;;15.73;11.20;;;;;;;8.84;100.00;101418.94;2089320;28;20068;-66
2021/11/07 03:46:16;;;;;;;15.10;10.35;;;;;;;8.85;100.00;101420.66;2089454;28;20521;-66
2021/11/07 03:47:16;;;;;;;13.25;9.77;;;;;;;8.86;100.00;101419.78;2090077;28;20063;-67
2021/11/07 03:48:16;;;;;;;16.90;11.10;;;;;;;8.87;100.00;101414.50;2089997;28;20129;-66
2021/11/07 03:49:17;;;;;;;16.93;10.67;;;;;;;8.86;100.00;101411.97;2090104;28;20033;-67
2021/11/07 03:50:19;;;;;;;16.55;9.98;;;;;;;8.87;100.00;101413.66;2090168;28;20389;-65
2021/11/07 03:51:23;;;;;;;16.38;9.95;;;;;;;8.87;100.00;101405.84;2090086;28;20029;-64
2021/11/07 03:52:23;;;;;;;14.23;9.73;;;;;;;8.88;100.00;101397.16;2090070;28;20113;-65
2021/11/07 03:53:23;;;;;;;14.63;10.67;;;;;;;8.89;100.00;101401.44;2090107;28;20032;-64
2021/11/07 03:54:28;;;;;;;12.83;9.83;;;;;;;8.88;100.00;101399.75;2090080;28;20113;-66
2021/11/07 03:55:28;;;;;;;15.10;10.88;;;;;;;8.88;100.00;101399.75;2090006;28;20104;-69
2021/11/07 03:56:29;;;;;;;16.23;11.40;;;;;;;8.90;100.00;101408.38;2090088;28;20021;-65
2021/11/07 03:57:29;;;;;;;13.95;10.05;;;;;;;8.91;100.00;101412.69;2090063;28;20029;-65
2021/11/07 03:58:29;;;;;;;14.07;11.07;;;;;;;8.90;100.00;101408.38;2090066;28;20470;-64
2021/11/07 03:59:31;;;;;;;14.47;10.07;;;;;;;8.90;100.00;101405.78;2090169;28;20029;-65
2021/11/07 04:00:31;;;;;;;;;;;;;;;8.92;100.00;101403.13;2089786;28;20059;-65
2021/11/07 04:01:32;;;;;;;13.45;9.80;;;;;;;8.92;100.00;101401.38;2089513;28;19912;-64
2021/11/07 04:02:33;;;;;;;14.25;10.20;;;;;;;8.93;100.00;101392.66;2089382;28;20517;-67
2021/11/07 04:03:33;;;;;;;14.63;10.63;;;;;;;8.93;100.00;101403.06;2089401;28;20021;-66
2021/11/07 04:04:34;;;;;;;16.50;11.57;;;;;;;8.93;100.00;101400.47;2089497;28;20051;-68
2021/11/07 04:05:35;;;;;;;16.20;11.63;;;;;;;8.93;100.00;101403.06;2090047;28;20748;-65
2021/11/07 04:06:37;;;;;;;14.18;10.35;;;;;;;8.96;100.00;101408.22;2090150;28;20017;-65
2021/11/07 04:07:38;;;;;;;16.23;11.30;;;;;;;8.97;100.00;101409.06;2089322;28;20020;-66
2021/11/07 04:08:40;;;;;;;16.25;11.23;;;;;;;8.98;100.00;101411.63;2089348;28;20096;-65
2021/11/07 04:09:41;;;;;;;16.85;11.27;;;;;;;8.99;100.00;101405.53;2089423;28;20017;-67
2021/11/07 04:10:41;;;;;;;18.65;12.55;;;;;;;9.00;100.00;101402.03;2089425;28;20044;-66
2021/11/07 04:11:42;;;;;;;15.33;12.47;;;;;;;9.00;100.00;101389.00;2090043;28;20029;-65
2021/11/07 04:12:43;;;;;;;19.42;12.02;;;;;;;9.00;100.00;101388.16;2089354;28;20078;-67
2021/11/07 04:13:46;;;;;;;17.92;11.38;;;;;;;8.99;100.00;101391.66;2089385;28;20013;-66
2021/11/07 04:14:46;;;;;;;16.63;10.18;;;;;;;8.98;100.00;101382.13;2089995;28;20044;-66
2021/11/07 04:15:47;;;;;;;17.37;11.20;;;;;;;8.97;100.00;101383.03;2089963;28;20037;-66
2021/11/07 04:16:47;;;;;;;16.27;11.30;;;;;;;8.97;100.00;101388.25;2089974;28;20036;-66
2021/11/07 04:17:47;;;;;;;12.10;10.33;;;;;;;8.96;100.00;101392.59;2090057;28;20497;-65
2021/11/07 04:18:48;;;;;;;16.97;10.40;;;;;;;8.97;100.00;101383.03;2089988;28;20013;-66
2021/11/07 04:19:48;;;;;;;15.20;10.77;;;;;;;8.96;100.00;101382.16;2089960;28;20470;-65
2021/11/07 04:20:49;;;;;;;16.30;10.73;;;;;;;8.96;100.00;101376.97;2089223;28;20289;-64
2021/11/07 04:21:51;;;;;;;15.10;10.40;;;;;;;8.96;100.00;101371.75;2089385;28;20025;-65
2021/11/07 04:22:51;;;;;;;15.40;10.65;;;;;;;8.98;100.00;101367.38;2089844;28;20087;-65
2021/11/07 04:23:52;;;;;;;13.70;9.97;;;;;;;9.00;100.00;101373.38;2089309;28;20044;-63
2021/11/07 04:24:52;;;;;;;18.50;10.80;;;;;;;9.01;100.00;101358.63;2089384;28;20045;-63
2021/11/07 04:25:53;;;;;;;14.87;11.60;;;;;;;9.00;100.00;101370.78;2089950;28;20033;-65
2021/11/07 04:26:54;;;;;;;16.52;11.77;;;;;;;8.99;100.00;101371.69;2089952;28;20029;-64
2021/11/07 04:27:54;;;;;;;13.60;11.03;;;;;;;9.01;100.00;101375.09;2089954;28;20029;-67
2021/11/07 04:28:54;;;;;;;14.37;10.87;;;;;;;9.01;100.00;101369.03;2089252;28;20044;-66
2021/11/07 04:29:55;;;;;;;16.53;10.70;;;;;;;9.02;100.00;101355.97;2089359;28;20025;-65
2021/11/07 04:30:55;;;;;;;15.93;11.48;;;;;;;9.02;100.00;101355.97;2089942;28;20075;-64
2021/11/07 04:31:56;;;;;;;16.80;11.47;;;;;;;9.02;100.00;101353.38;2089934;28;20048;-65
2021/11/07 04:32:57;;;;;;;;;;;;;;;9.02;100.00;101371.59;2090344;28;20473;-66
2021/11/07 04:33:57;;;;;;;14.32;10.60;;;;;;;9.02;100.00;101366.41;2089857;28;19947;-63
2021/11/07 04:34:57;;;;;;;16.60;12.23;;;;;;;9.01;100.00;101369.88;2089973;28;20044;-64
2021/11/07 04:35:58;;;;;;;20.30;11.93;;;;;;;9.02;100.00;101375.94;2089274;28;20021;-65
2021/11/07 04:36:59;;;;;;;13.85;10.10;;;;;;;9.02;100.00;101361.19;2081076;28;20023;-64
2021/11/07 04:38:00;;;;;;;18.33;12.45;;;;;;;9.02;100.00;101370.75;2089948;28;20513;-65
2021/11/07 04:39:00;;;;;;;19.33;11.68;;;;;;;9.02;100.00;101361.19;2091505;28;20116;-66
2021/11/07 04:40:00;;;;;;;18.97;12.67;;;;;;;9.05;100.00;101364.59;2091433;28;20438;-65
2021/11/07 04:41:01;;;;;;;18.47;11.93;;;;;;;9.05;100.00;101370.66;2091430;28;20147;-65
2021/11/07 04:42:02;;;;;;;15.95;9.93;;;;;;;9.05;100.00;101349.84;2091352;28;20429;-67
2021/11/07 04:43:02;;;;;;;17.83;11.80;;;;;;;9.06;100.00;101376.72;2091468;28;20020;-66
2021/11/07 04:44:03;;;;;;;19.33;12.40;;;;;;;9.07;100.00;101379.28;2091352;28;20504;-66
2021/11/07 04:45:05;;;;;;;14.05;10.75;;;;;;;9.09;100.00;101379.22;2091394;28;20052;-65
2021/11/07 04:46:05;;;;;;;16.88;10.93;;;;;;;9.09;100.00;101384.44;2091410;28;20037;-65
2021/11/07 04:47:05;;;;;;;16.43;11.57;;;;;;;9.09;100.00;101389.66;2091350;28;20044;-64
2021/11/07 04:48:06;;;;;;;18.77;11.57;;;;;;;9.07;100.00;101381.03;2090739;28;20029;-64
2021/11/07 04:49:06;;;;;;;16.83;11.37;;;;;;;9.06;100.00;101387.16;2090664;28;20025;-64
2021/11/07 04:50:08;;;;;;;19.03;11.90;;;;;;;9.04;100.00;101383.72;2090626;28;20354;-64
2021/11/07 04:51:09;;;;;;;18.58;11.73;;;;;;;9.04;100.00;101374.16;2090726;28;20075;-64
2021/11/07 04:52:09;;;;;;;17.33;11.70;;;;;;;9.05;100.00;101375.00;2090617;28;20033;-64
2021/11/07 04:53:12;;;;;;;19.90;12.20;;;;;;;9.04;100.00;101365.50;2090847;28;20037;-64
2021/11/07 04:54:12;;;;;;;15.50;10.88;;;;;;;9.02;100.00;101374.22;2091327;28;20020;-64
2021/11/07 04:55:14;;;;;;;16.10;11.77;;;;;;;9.02;100.00;101358.59;2091337;28;20132;-64
2021/11/07 04:56:15;;;;;;;17.15;11.80;;;;;;;9.04;100.00;101363.75;2091169;28;20028;-64
2021/11/07 04:57:15;;;;;;;16.00;11.75;;;;;;;9.05;100.00;101365.47;2091357;28;20466;-64
2021/11/07 04:58:16;;;;;;;23.30;13.17;;;;;;;9.06;100.00;101372.38;2090557;28;20063;-63
2021/11/07 04:59:17;;;;;;;15.38;11.77;;;;;;;9.07;100.00;101383.66;2090660;28;20028;-63
2021/11/07 05:00:21;;;;;;;16.33;12.40;;;;;;;9.08;100.00;101380.13;2091223;28;20041;-64
2021/11/07 05:01:22;;;;;;;21.35;13.00;;;;;;;9.09;100.00;101371.41;2091276;28;20086;-63
2021/11/07 05:02:22;;;;;;;19.67;13.10;;;;;;;9.09;100.00;101364.47;2091230;28;20490;-62
2021/11/07 05:03:23;;;;;;;21.85;13.25;;;;;;;9.09;100.00;101358.41;2091262;28;20494;-65
2021/11/07 05:04:23;;;;;;;21.03;13.17;;;;;;;9.08;100.00;101330.66;2091273;28;20107;-64
2021/11/07 05:05:23;;;;;;;16.00;12.70;;;;;;;9.08;100.00;101338.47;2091331;28;20366;-64
2021/11/07 05:06:24;;;;;;;21.70;13.43;;;;;;;9.09;100.00;101350.59;2091190;28;20474;-64
2021/11/07 05:07:24;;;;;;;20.05;13.77;;;;;;;9.10;100.00;101357.53;2091253;28;20032;-63
2021/11/07 05:08:24;;;;;;;20.50;13.23;;;;;;;9.11;100.00;101365.28;2091029;28;20116;-64
2021/11/07 05:09:26;;;;;;;18.10;12.87;;;;;;;9.13;100.00;101368.69;2091185;28;20040;-64
2021/11/07 05:10:27;;;;;;;17.70;13.90;;;;;;;9.15;100.00;101371.25;2091104;28;20062;-65
2021/11/07 05:11:27;;;;;;;20.77;14.80;;;;;;;9.15;100.00;101373.88;2091176;28;20441;-65
2021/11/07 05:12:28;;;;;;;18.73;12.27;;;;;;;9.13;100.00;101368.69;2091164;28;20116;-63
2021/11/07 05:13:28;;;;;;;15.15;11.00;;;;;;;9.14;100.00;101361.75;2091195;28;20162;-64
2021/11/07 05:14:29;;;;;;;19.40;13.73;;;;;;;9.16;100.00;101359.09;2091178;28;20024;-63
2021/11/07 05:15:29;;;;;;;21.47;14.30;;;;;;;9.16;100.00;101354.72;2091109;28;20474;-63
2021/11/07 05:16:29;;;;;;;20.80;13.90;;;;;;;9.17;100.00;101355.59;2090489;28;20437;-63
2021/11/07 05:17:30;;;;;;;18.10;12.53;;;;;;;9.17;100.00;101353.81;2090572;28;20132;-64
2021/11/07 05:18:30;;;;;;;22.87;13.07;;;;;;;9.17;100.00;101356.44;2091173;28;20021;-64
2021/11/07 05:19:33;;;;;;;19.93;12.70;;;;;;;9.18;100.00;101354.69;2091152;28;20027;-66